createdAt,value
2017-12-04T00:04:57.285Z,1.60
2017-12-04T00:09:58.800Z,1.60
2017-12-04T00:15:00.329Z,1.60
2017-12-04T00:20:02.641Z,1.70
2017-12-04T00:25:04.165Z,1.70
2017-12-04T00:30:05.673Z,1.80
2017-12-04T00:35:07.192Z,1.80
2017-12-04T00:40:08.738Z,1.80
2017-12-04T00:45:10.230Z,1.80
2017-12-04T00:50:11.740Z,1.80
2017-12-04T00:55:13.205Z,1.80
2017-12-04T01:00:14.716Z,1.80
2017-12-04T01:05:16.208Z,1.90
2017-12-04T01:10:17.721Z,1.80
2017-12-04T01:15:19.292Z,1.80
2017-12-04T01:20:20.807Z,1.80
2017-12-04T01:25:22.332Z,1.80
2017-12-04T01:30:23.857Z,1.90
2017-12-04T01:35:26.119Z,1.90
2017-12-04T01:40:27.646Z,1.90
2017-12-04T01:45:29.213Z,2.00
2017-12-04T01:50:30.745Z,2.00
2017-12-04T01:55:33.201Z,2.00
2017-12-04T02:00:34.746Z,1.90
2017-12-04T02:05:36.249Z,2.00
2017-12-04T02:10:37.758Z,2.10
2017-12-04T02:15:39.259Z,2.00
2017-12-04T02:20:40.774Z,2.00
2017-12-04T02:25:43.169Z,2.00
2017-12-04T02:30:44.703Z,2.00
2017-12-04T02:35:46.292Z,2.10
2017-12-04T02:40:48.596Z,2.10
2017-12-04T02:45:50.110Z,2.00
2017-12-04T02:50:51.601Z,2.10
2017-12-04T02:55:53.863Z,2.10
2017-12-04T03:00:55.377Z,2.10
2017-12-04T03:05:56.899Z,2.20
2017-12-04T03:10:58.439Z,2.20
2017-12-04T03:15:59.994Z,2.20
2017-12-04T03:21:01.478Z,2.20
2017-12-04T03:26:02.964Z,2.20
2017-12-04T03:31:04.462Z,2.20
2017-12-04T03:36:06.713Z,2.10
2017-12-04T03:41:08.233Z,2.10
2017-12-04T03:46:09.782Z,2.20
2017-12-04T03:51:12.073Z,2.20
2017-12-04T03:56:13.608Z,2.10
2017-12-04T04:01:15.109Z,2.20
2017-12-04T04:06:16.748Z,2.30
2017-12-04T04:11:18.269Z,2.30
2017-12-04T04:16:19.843Z,2.30
2017-12-04T04:21:21.370Z,2.30
2017-12-04T04:26:23.892Z,2.30
2017-12-04T04:31:25.399Z,2.20
2017-12-04T04:36:26.952Z,2.30
2017-12-04T04:41:28.590Z,2.40
2017-12-04T04:46:30.069Z,2.30
2017-12-04T04:51:31.563Z,2.30
2017-12-04T04:56:33.086Z,2.30
2017-12-04T05:01:34.621Z,2.30
2017-12-04T05:06:36.173Z,2.30
2017-12-04T05:11:37.759Z,2.30
2017-12-04T05:16:40.199Z,2.30
2017-12-04T05:21:48.631Z,2.20
2017-12-04T05:26:50.145Z,2.40
2017-12-04T05:31:52.428Z,2.40
2017-12-04T05:36:54.804Z,2.40
2017-12-04T05:41:56.352Z,2.40
2017-12-04T05:46:57.888Z,2.40
2017-12-04T05:51:59.471Z,2.60
2017-12-04T05:57:00.995Z,2.50
2017-12-04T06:02:03.252Z,2.50
2017-12-04T06:07:04.762Z,2.50
2017-12-04T06:12:06.368Z,2.40
2017-12-04T06:17:08.120Z,2.40
2017-12-04T06:22:09.686Z,2.50
2017-12-04T06:27:11.229Z,2.40
2017-12-04T06:32:13.814Z,2.40
2017-12-04T06:37:16.064Z,2.40
2017-12-04T06:42:17.692Z,2.30
2017-12-04T06:47:19.195Z,2.40
2017-12-04T06:52:20.701Z,2.50
2017-12-04T06:57:22.979Z,2.80
2017-12-04T07:02:25.350Z,2.80
2017-12-04T07:07:26.886Z,2.80
2017-12-04T07:12:28.422Z,2.70
2017-12-04T07:17:29.966Z,2.60
2017-12-04T07:22:32.276Z,2.60
2017-12-04T07:27:33.789Z,2.60
2017-12-04T07:32:35.295Z,2.70
2017-12-04T07:37:36.824Z,2.70
2017-12-04T07:42:38.363Z,2.80
2017-12-04T07:47:39.910Z,2.80
2017-12-04T07:52:41.500Z,2.90
2017-12-04T07:57:43.018Z,2.90
2017-12-04T08:02:45.331Z,3.00
2017-12-04T08:07:46.863Z,2.90
2017-12-04T08:12:48.358Z,3.00
2017-12-04T08:17:49.870Z,3.00
2017-12-04T08:22:51.437Z,3.00
2017-12-04T08:27:52.972Z,3.00
2017-12-04T08:32:54.509Z,3.00
2017-12-04T08:37:56.780Z,3.20
2017-12-04T08:42:58.277Z,3.10
2017-12-04T08:47:59.787Z,3.10
2017-12-04T08:53:01.330Z,3.20
2017-12-04T08:58:02.876Z,3.20
2017-12-04T09:03:04.392Z,3.30
2017-12-04T09:08:05.916Z,3.50
2017-12-04T09:13:07.525Z,3.60
2017-12-04T09:18:09.242Z,3.50
2017-12-04T09:23:11.520Z,3.50
2017-12-04T09:28:13.764Z,3.50
2017-12-04T09:33:15.315Z,3.40
2017-12-04T09:38:16.831Z,3.60
2017-12-04T09:43:18.333Z,3.50
2017-12-04T09:48:19.870Z,3.60
2017-12-04T09:53:22.125Z,3.50
2017-12-04T09:58:23.640Z,3.40
2017-12-04T10:03:25.189Z,3.60
2017-12-04T10:08:27.457Z,3.70
2017-12-04T10:13:28.969Z,3.60
2017-12-04T10:18:30.502Z,3.80
2017-12-04T10:23:32.001Z,4.00
2017-12-04T10:28:33.529Z,4.10
2017-12-04T10:33:35.104Z,4.20
2017-12-04T10:38:36.625Z,4.00
2017-12-04T10:43:38.134Z,4.00
2017-12-04T10:48:39.639Z,4.10
2017-12-04T10:53:41.195Z,4.00
2017-12-04T10:58:43.454Z,4.00
2017-12-04T11:03:45.046Z,4.00
2017-12-04T11:08:47.310Z,4.10
2017-12-04T11:13:48.800Z,4.00
2017-12-04T11:18:50.333Z,4.10
2017-12-04T11:23:51.895Z,4.10
2017-12-04T11:28:53.402Z,4.00
2017-12-04T11:33:54.942Z,4.10
2017-12-04T11:38:56.479Z,4.00
2017-12-04T11:43:58.015Z,4.00
2017-12-04T11:48:59.536Z,3.90
2017-12-04T11:54:01.141Z,3.80
2017-12-04T11:59:02.694Z,3.80
2017-12-04T12:04:04.984Z,4.00
2017-12-04T12:09:07.260Z,4.00
2017-12-04T12:14:09.505Z,4.10
2017-12-04T12:19:11.038Z,4.00
2017-12-04T12:24:12.574Z,4.20
2017-12-04T12:29:14.817Z,4.40
2017-12-04T12:34:16.344Z,4.40
2017-12-04T12:39:18.581Z,4.60
2017-12-04T12:44:20.139Z,4.60
2017-12-04T12:49:21.712Z,4.80
2017-12-04T12:54:23.266Z,4.80
2017-12-04T12:59:24.802Z,4.80
2017-12-04T13:04:26.332Z,4.90
2017-12-04T13:09:27.886Z,4.90
2017-12-04T13:14:29.422Z,5.10
2017-12-04T13:19:30.949Z,5.10
2017-12-04T13:24:33.196Z,5.10
2017-12-04T13:29:34.713Z,5.00
2017-12-04T13:34:54.830Z,5.10
2017-12-04T13:39:56.382Z,5.00
2017-12-04T13:44:58.642Z,5.10
2017-12-04T13:50:00.152Z,5.00
2017-12-04T13:55:01.673Z,5.10
2017-12-04T14:00:03.179Z,5.10
2017-12-04T14:05:04.748Z,5.10
2017-12-04T14:10:06.266Z,5.20
2017-12-04T14:15:07.753Z,5.20
2017-12-04T14:20:10.059Z,5.30
2017-12-04T14:25:12.312Z,5.20
2017-12-04T14:30:13.900Z,5.20
2017-12-04T14:35:16.154Z,5.40
2017-12-04T14:40:17.668Z,5.30
2017-12-04T14:45:19.226Z,5.40
2017-12-04T14:50:21.715Z,5.40
2017-12-04T14:55:24.088Z,5.20
2017-12-04T15:00:25.595Z,5.20
2017-12-04T15:05:27.130Z,5.20
2017-12-04T15:10:29.449Z,5.10
2017-12-04T15:15:31.009Z,5.00
2017-12-04T15:20:34.497Z,5.10
2017-12-04T15:25:36.773Z,5.10
2017-12-04T15:30:38.334Z,5.10
2017-12-04T15:35:40.670Z,5.10
2017-12-04T15:40:42.204Z,5.10
2017-12-04T15:45:44.485Z,5.10
2017-12-04T15:50:46.724Z,5.10
2017-12-04T15:55:48.282Z,5.00
2017-12-04T16:00:50.641Z,5.10
2017-12-04T16:05:52.251Z,5.20
2017-12-04T16:10:53.807Z,5.20
2017-12-04T16:15:55.369Z,5.20
2017-12-04T16:20:56.964Z,5.20
2017-12-04T16:25:58.679Z,5.20
2017-12-04T16:31:01.010Z,5.20
2017-12-04T16:36:02.754Z,5.10
2017-12-04T16:41:04.307Z,5.30
2017-12-04T16:46:05.837Z,5.30
2017-12-04T16:51:07.388Z,5.30
2017-12-04T16:56:08.963Z,5.30
2017-12-04T17:01:10.506Z,5.10
2017-12-04T17:06:12.088Z,5.00
2017-12-04T17:11:13.650Z,5.00
2017-12-04T17:16:15.142Z,5.00
2017-12-04T17:21:17.022Z,5.00
2017-12-04T17:26:18.639Z,5.10
2017-12-04T17:31:20.195Z,5.20
2017-12-04T17:36:21.868Z,5.20
2017-12-04T17:41:23.381Z,5.20
2017-12-04T17:46:25.142Z,5.30
2017-12-04T17:51:26.740Z,5.30
2017-12-04T17:56:28.338Z,5.30
2017-12-04T18:01:29.861Z,5.20
2017-12-04T18:06:31.404Z,5.20
2017-12-04T18:11:32.949Z,5.10
2017-12-04T18:16:34.482Z,5.00
2017-12-04T18:21:36.084Z,5.00
2017-12-04T18:26:37.642Z,5.10
2017-12-04T18:31:39.905Z,5.10
2017-12-04T18:36:42.334Z,5.10
2017-12-04T18:41:44.067Z,5.00
2017-12-04T18:46:45.661Z,5.20
2017-12-04T18:51:47.309Z,5.30
2017-12-04T18:56:49.631Z,5.20
2017-12-04T19:01:51.217Z,5.20
2017-12-04T19:06:52.841Z,5.20
2017-12-04T19:11:55.220Z,5.30
2017-12-04T19:16:57.597Z,5.40
2017-12-04T19:21:59.192Z,5.30
2017-12-04T19:27:00.783Z,5.30
2017-12-04T19:32:02.521Z,5.40
2017-12-04T19:37:04.095Z,5.30
2017-12-04T19:42:06.504Z,5.30
2017-12-04T19:47:08.141Z,5.30
2017-12-04T19:52:09.682Z,5.30
2017-12-04T19:57:11.314Z,5.40
2017-12-04T20:02:12.917Z,5.40
2017-12-04T20:07:14.496Z,5.60
2017-12-04T20:12:16.123Z,5.60
2017-12-04T20:17:17.744Z,5.60
2017-12-04T20:22:19.308Z,5.40
2017-12-04T20:27:20.962Z,5.40
2017-12-04T20:32:22.507Z,5.30
2017-12-04T20:37:24.089Z,5.20
2017-12-04T20:42:25.665Z,5.10
2017-12-04T20:47:27.274Z,5.10
2017-12-04T20:52:29.619Z,5.10
2017-12-04T20:57:31.248Z,5.00
2017-12-04T21:02:33.547Z,5.20
2017-12-04T21:07:49.436Z,5.20
2017-12-04T21:13:09.451Z,5.20
2017-12-04T21:18:11.038Z,5.00
2017-12-04T21:23:12.642Z,4.90
2017-12-04T21:28:14.296Z,5.00
2017-12-04T21:33:15.855Z,5.00
2017-12-04T21:38:17.488Z,5.00
2017-12-04T21:43:19.117Z,5.00
2017-12-04T21:48:20.705Z,5.10
2017-12-04T21:53:23.137Z,5.20
2017-12-04T21:58:24.668Z,5.10
2017-12-04T22:03:26.965Z,5.20
2017-12-04T22:08:28.472Z,5.10
2017-12-04T22:13:30.012Z,5.20
2017-12-04T22:18:31.846Z,5.20
2017-12-04T22:23:34.226Z,5.10
2017-12-04T22:28:35.857Z,5.00
2017-12-04T22:33:37.406Z,5.10
2017-12-04T22:38:38.942Z,5.20
2017-12-04T22:43:41.250Z,5.30
2017-12-04T22:48:42.747Z,5.30
2017-12-04T22:53:44.294Z,5.40
2017-12-04T22:58:45.818Z,5.40
2017-12-04T23:03:47.347Z,5.30
2017-12-04T23:08:48.844Z,5.20
2017-12-04T23:13:50.373Z,5.20
2017-12-04T23:18:51.858Z,5.30
2017-12-04T23:23:53.412Z,5.40
2017-12-04T23:28:55.054Z,5.40
2017-12-04T23:33:56.556Z,5.40
2017-12-04T23:38:58.046Z,5.50
2017-12-04T23:43:59.581Z,5.50
2017-12-04T23:49:01.133Z,5.50
2017-12-04T23:54:02.710Z,5.50
2017-12-04T23:59:04.217Z,5.50
